Time;durP1;ratioP1;P1;durP2;ratioP2;P2;SDS_P1;SDS_P2;PMS_P1;PMS_P2;Temp;Humidity;BMP_temperature;BMP_pressure;BME280_temperature;BME280_humidity;BME280_pressure;Samples;Min_cycle;Max_cycle;Signal;HPM_P1;HPM_P2
2022/08/23 00:00:16;;;;;;;15.38;7.13;;;;;;;21.63;nan;-24418.00;4931552;29;20225;-59
2022/08/23 00:02:42;;;;;;;13.88;7.20;;;;;;;21.31;nan;-24409.28;4932520;29;20650;-59
2022/08/23 00:05:08;;;;;;;13.68;6.93;;;;;;;21.41;nan;-24412.19;4928145;29;20189;-59
2022/08/23 00:07:35;;;;;;;13.85;7.15;;;;;;;21.45;nan;-24413.28;4930664;29;20265;-59
2022/08/23 00:10:00;;;;;;;16.17;7.22;;;;;;;21.41;nan;-24412.03;4931260;29;20259;-60
2022/08/23 00:12:25;;;;;;;11.63;6.82;;;;;;;21.77;nan;-24422.00;4930768;29;20204;-59
2022/08/23 00:14:53;;;;;;;12.10;6.45;;;;;;;21.69;nan;-24419.66;4932334;29;20189;-59
2022/08/23 00:17:19;;;;;;;10.90;6.18;;;;;;;21.68;nan;-24419.53;4931666;29;20669;-59
2022/08/23 00:19:46;;;;;;;14.25;6.15;;;;;;;21.41;nan;-24412.03;4931170;29;20222;-59
2022/08/23 00:22:13;;;;;;;9.15;5.78;;;;;;;21.51;nan;-24414.81;4931536;29;20428;-59
2022/08/23 00:24:39;;;;;;;12.27;6.78;;;;;;;21.30;nan;-24409.13;4931623;29;20221;-59
2022/08/23 00:27:09;;;;;;;10.18;5.80;;;;;;;21.78;nan;-24422.28;4930106;29;20213;-58
2022/08/23 00:29:46;;;;;;;12.05;6.07;;;;;;;21.67;nan;-24419.25;4931283;29;20186;-59
2022/08/23 00:32:14;;;;;;;12.00;6.20;;;;;;;21.52;nan;-24415.09;4930899;29;20186;-59
2022/08/23 00:34:40;;;;;;;10.80;6.47;;;;;;;21.50;nan;-24414.53;4931586;29;20198;-59
2022/08/23 00:37:06;;;;;;;12.40;6.05;;;;;;;21.49;nan;-24414.41;4932144;29;20183;-59
2022/08/23 00:39:32;;;;;;;11.23;5.93;;;;;;;21.42;nan;-24412.47;4931274;29;20181;-59
2022/08/23 00:47:38;;;;;;;9.60;4.90;;;;;;;21.59;nan;-24417.16;4932388;29;20269;-59
2022/08/23 00:47:40;;;;;;;9.90;5.63;;;;;;;21.46;nan;-24413.44;4933927;29;21934;-59
2022/08/23 00:50:08;;;;;;;7.50;4.72;;;;;;;21.42;nan;-24412.31;4935194;29;20183;-59
2022/08/23 00:52:44;;;;;;;8.50;4.97;;;;;;;21.35;nan;-24410.50;4934418;29;20764;-59
2022/08/23 00:55:10;;;;;;;10.07;5.03;;;;;;;21.08;nan;-24403.16;4935468;29;20662;-59
2022/08/23 00:57:36;;;;;;;8.82;5.05;;;;;;;21.09;nan;-24403.44;4934545;29;20187;-59
2022/08/23 01:00:05;;;;;;;8.00;4.20;;;;;;;21.56;nan;-24416.34;4935548;29;20252;-59
2022/08/23 01:02:31;;;;;;;7.45;4.40;;;;;;;21.62;nan;-24417.72;4935376;29;20194;-59
2022/08/23 01:04:58;;;;;;;7.70;4.35;;;;;;;21.54;nan;-24415.66;4935040;29;20181;-59
2022/08/23 01:07:35;;;;;;;10.93;4.93;;;;;;;21.49;nan;-24414.25;4934075;29;20290;-59
2022/08/23 01:10:08;;;;;;;9.18;4.80;;;;;;;21.66;nan;-24418.97;4934407;29;20269;-59
2022/08/23 01:12:42;;;;;;;11.40;5.47;;;;;;;21.43;nan;-24412.59;4934707;29;20242;-59
2022/08/23 01:15:20;;;;;;;8.48;4.57;;;;;;;21.23;nan;-24407.03;4934196;29;20178;-59
2022/08/23 01:17:53;;;;;;;6.65;4.40;;;;;;;20.90;nan;-24398.16;4934915;29;20257;-59
2022/08/23 01:20:23;;;;;;;7.53;4.78;;;;;;;21.23;nan;-24407.03;4934361;29;20182;-59
2022/08/23 01:23:04;;;;;;;10.20;5.10;;;;;;;21.31;nan;-24409.41;4934219;29;20174;-59
2022/08/23 01:25:31;;;;;;;9.77;5.00;;;;;;;20.97;nan;-24399.97;4932013;29;20209;-59
2022/08/23 01:27:59;;;;;;;10.02;5.53;;;;;;;21.23;nan;-24407.19;4934201;29;20219;-58
2022/08/23 01:30:28;;;;;;;6.85;4.53;;;;;;;21.13;nan;-24404.56;4934705;29;20205;-59
2022/08/23 01:33:00;;;;;;;8.38;4.78;;;;;;;20.80;nan;-24395.41;4935056;29;20238;-58
2022/08/23 01:35:42;;;;;;;10.73;5.53;;;;;;;21.09;nan;-24403.44;4934367;29;20278;-58
2022/08/23 01:38:09;;;;;;;9.70;5.20;;;;;;;21.28;nan;-24408.56;4934260;29;20181;-58
2022/08/23 01:40:36;;;;;;;9.02;4.78;;;;;;;20.88;nan;-24397.47;4933964;29;20185;-58
2022/08/23 01:43:02;;;;;;;9.63;5.28;;;;;;;20.98;nan;-24400.38;4934429;29;20210;-58
2022/08/23 01:45:28;;;;;;;9.80;5.20;;;;;;;21.33;nan;-24409.97;4932639;29;20638;-59
2022/08/23 01:47:54;;;;;;;11.20;5.50;;;;;;;20.99;nan;-24400.66;4934132;29;20183;-59
2022/08/23 01:50:19;;;;;;;9.48;5.22;;;;;;;20.93;nan;-24399.00;4933837;29;20642;-58
2022/08/23 01:52:45;;;;;;;10.73;5.78;;;;;;;21.27;nan;-24408.16;4933635;29;20183;-58
2022/08/23 01:55:11;;;;;;;9.57;5.20;;;;;;;21.04;nan;-24402.06;4934061;29;20218;-58
2022/08/23 01:57:37;;;;;;;12.00;5.75;;;;;;;21.30;nan;-24409.00;4933620;29;20214;-58
2022/08/23 02:00:05;;;;;;;10.80;5.07;;;;;;;21.25;nan;-24407.75;4933594;29;20213;-58
2022/08/23 02:02:31;;;;;;;9.55;5.90;;;;;;;21.31;nan;-24409.41;4933404;29;20193;-59
2022/08/23 02:04:56;;;;;;;11.20;5.95;;;;;;;20.99;nan;-24400.66;4934458;29;20218;-59
2022/08/23 02:07:26;;;;;;;9.90;5.80;;;;;;;21.25;nan;-24407.75;4934189;29;20290;-59
2022/08/23 02:09:51;;;;;;;9.40;5.57;;;;;;;21.21;nan;-24406.63;4933373;29;20186;-59
2022/08/23 02:12:17;;;;;;;10.52;6.13;;;;;;;21.05;nan;-24402.19;4933818;29;20669;-58
2022/08/23 02:14:42;;;;;;;10.07;5.68;;;;;;;21.31;nan;-24409.41;4933218;29;20187;-59
2022/08/23 02:17:08;;;;;;;10.75;5.50;;;;;;;21.10;nan;-24403.72;4932974;29;20545;-58
2022/08/23 02:19:35;;;;;;;14.05;5.65;;;;;;;21.00;nan;-24400.94;4933373;29;20665;-58
2022/08/23 02:22:00;;;;;;;9.23;5.43;;;;;;;21.30;nan;-24409.00;4933598;29;20186;-58
2022/08/23 02:24:26;;;;;;;14.05;5.68;;;;;;;21.39;nan;-24411.63;4932486;29;20206;-59
2022/08/23 02:26:56;;;;;;;12.68;5.47;;;;;;;21.33;nan;-24409.81;4933048;29;20643;-58
2022/08/23 02:29:24;;;;;;;10.60;5.38;;;;;;;21.27;nan;-24408.28;4933821;29;20265;-58
2022/08/23 02:31:50;;;;;;;11.75;5.85;;;;;;;21.38;nan;-24411.22;4933016;29;20195;-59
2022/08/23 02:34:17;;;;;;;8.32;5.05;;;;;;;21.28;nan;-24408.56;4934445;29;20221;-59
2022/08/23 02:36:43;;;;;;;8.75;5.75;;;;;;;21.34;nan;-24410.09;4932925;29;20190;-59
2022/08/23 02:39:11;;;;;;;11.18;6.13;;;;;;;20.96;nan;-24399.69;4933384;29;20183;-59
2022/08/23 02:41:37;;;;;;;11.82;6.28;;;;;;;21.31;nan;-24409.41;4933279;29;20629;-59
2022/08/23 02:44:04;;;;;;;11.88;5.82;;;;;;;20.90;nan;-24398.03;4932645;29;20300;-59
2022/08/23 02:46:30;;;;;;;11.13;5.72;;;;;;;21.43;nan;-24412.72;4933055;29;20191;-59
2022/08/23 02:48:55;;;;;;;11.18;5.82;;;;;;;21.25;nan;-24407.75;4932948;29;20558;-59
2022/08/23 02:51:21;;;;;;;8.82;5.43;;;;;;;20.85;nan;-24396.78;4933775;29;20335;-59
2022/08/23 02:53:47;;;;;;;10.00;5.88;;;;;;;21.31;nan;-24409.28;4933153;29;20209;-59
2022/08/23 02:56:12;;;;;;;9.43;4.82;;;;;;;20.93;nan;-24399.00;4932769;29;20654;-59
2022/08/23 02:58:39;;;;;;;10.48;5.10;;;;;;;21.23;nan;-24407.19;4932384;29;20186;-59
2022/08/23 03:01:05;;;;;;;7.57;4.72;;;;;;;21.27;nan;-24408.28;4933157;29;20186;-59
2022/08/23 03:03:31;;;;;;;10.38;5.15;;;;;;;21.29;nan;-24408.84;4932272;29;20202;-58
2022/08/23 03:05:56;;;;;;;10.18;5.47;;;;;;;21.34;nan;-24410.09;4932333;29;20241;-59
2022/08/23 03:08:23;;;;;;;8.13;4.97;;;;;;;21.19;nan;-24405.94;4933604;29;20194;-59
2022/08/23 03:10:51;;;;;;;11.30;5.68;;;;;;;21.23;nan;-24407.03;4933834;29;20182;-59
2022/08/23 03:13:18;;;;;;;11.23;5.00;;;;;;;21.37;nan;-24411.06;4933168;29;20710;-59
2022/08/23 03:15:44;;;;;;;9.77;4.70;;;;;;;21.28;nan;-24408.44;4931222;29;20353;-60
2022/08/23 03:18:11;;;;;;;9.18;4.72;;;;;;;20.90;nan;-24398.16;4933333;29;20186;-59
2022/08/23 03:20:40;;;;;;;10.23;4.60;;;;;;;21.01;nan;-24401.09;4932636;29;20277;-59
2022/08/23 03:23:06;;;;;;;14.02;4.82;;;;;;;21.17;nan;-24405.53;4928002;29;20225;-58
2022/08/23 03:25:33;;;;;;;9.75;4.05;;;;;;;21.01;nan;-24401.22;4926298;29;20215;-60
2022/08/23 03:28:03;;;;;;;9.32;4.68;;;;;;;21.36;nan;-24410.78;4926400;29;20642;-59
2022/08/23 03:30:51;;;;;;;8.73;4.55;;;;;;;21.20;nan;-24406.22;4927819;29;20210;-59
2022/08/23 03:33:18;;;;;;;7.30;4.13;;;;;;;21.35;nan;-24410.50;4928124;29;20202;-59
2022/08/23 03:35:44;;;;;;;8.20;4.40;;;;;;;21.17;nan;-24405.38;4925391;29;20191;-58
2022/08/23 03:38:10;;;;;;;7.88;4.85;;;;;;;20.82;nan;-24395.94;4908146;29;20337;-58
2022/08/23 03:40:36;;;;;;;8.07;4.72;;;;;;;21.19;nan;-24405.94;4926311;29;20281;-59
2022/08/23 03:43:01;;;;;;;6.78;3.65;;;;;;;21.11;nan;-24404.00;4926169;29;20686;-59
2022/08/23 03:45:27;;;;;;;9.80;5.07;;;;;;;20.84;nan;-24396.38;4925268;29;20222;-59
2022/08/23 03:47:53;;;;;;;9.80;4.75;;;;;;;21.18;nan;-24405.66;4925288;29;20226;-59
2022/08/23 03:50:19;;;;;;;11.70;4.65;;;;;;;20.90;nan;-24398.16;4925189;29;20226;-59
2022/08/23 03:52:45;;;;;;;8.75;4.57;;;;;;;21.10;nan;-24403.72;4926168;29;20186;-60
2022/08/23 03:55:11;;;;;;;9.20;5.03;;;;;;;20.77;nan;-24394.56;4927446;29;20253;-60
2022/08/23 03:57:37;;;;;;;8.20;4.07;;;;;;;20.78;nan;-24394.69;4927176;29;20317;-60
2022/08/23 04:00:06;;;;;;;6.90;4.22;;;;;;;20.95;nan;-24399.56;4926490;29;20657;-59
2022/08/23 04:02:31;;;;;;;7.65;4.47;;;;;;;20.76;nan;-24394.28;4926813;29;20563;-59
2022/08/23 04:04:57;;;;;;;6.28;3.60;;;;;;;20.98;nan;-24400.38;4927300;29;20206;-59
2022/08/23 04:07:23;;;;;;;7.90;4.50;;;;;;;20.86;nan;-24397.06;4927275;29;20198;-59
2022/08/23 04:09:48;;;;;;;10.73;4.60;;;;;;;21.19;nan;-24405.94;4927242;29;20228;-59
2022/08/23 04:12:14;;;;;;;7.25;4.35;;;;;;;21.17;nan;-24405.38;4927927;29;20182;-58
2022/08/23 04:14:39;;;;;;;9.35;5.18;;;;;;;21.14;nan;-24404.84;4930408;29;20182;-59
2022/08/23 04:17:05;;;;;;;8.07;4.68;;;;;;;20.74;nan;-24393.72;4934653;29;20225;-59
2022/08/23 04:19:31;;;;;;;10.57;4.60;;;;;;;20.92;nan;-24398.59;4937626;29;20190;-58
2022/08/23 04:21:56;;;;;;;9.18;4.60;;;;;;;21.38;nan;-24411.22;4933984;29;20681;-59
2022/08/23 04:24:22;;;;;;;9.23;4.65;;;;;;;21.01;nan;-24401.09;4934060;29;20210;-59
2022/08/23 04:26:48;;;;;;;7.78;4.22;;;;;;;21.22;nan;-24406.78;4935846;29;20185;-59
2022/08/23 04:29:15;;;;;;;6.95;3.75;;;;;;;21.10;nan;-24403.72;4935234;29;20566;-59
2022/08/23 04:31:43;;;;;;;7.85;4.28;;;;;;;21.35;nan;-24410.50;4934268;29;20269;-59
2022/08/23 04:34:08;;;;;;;7.25;4.13;;;;;;;21.58;nan;-24416.88;4936107;29;20209;-59
2022/08/23 04:36:37;;;;;;;6.65;4.07;;;;;;;21.67;nan;-24419.25;4937228;29;20298;-59
2022/08/23 04:39:03;;;;;;;7.18;4.10;;;;;;;21.69;nan;-24419.66;4936036;29;20190;-59
2022/08/23 04:44:14;;;;;;;7.03;4.40;;;;;;;21.45;nan;-24413.28;4936592;29;20722;-60
2022/08/23 04:46:42;;;;;;;5.63;3.70;;;;;;;21.82;nan;-24423.41;4936850;29;20194;-60
2022/08/23 04:49:08;;;;;;;6.75;3.53;;;;;;;21.49;nan;-24414.41;4935732;29;20497;-60
2022/08/23 04:51:33;;;;;;;7.65;3.97;;;;;;;22.01;nan;-24428.53;4935868;29;20222;-60
2022/08/23 04:53:58;;;;;;;6.65;3.08;;;;;;;21.68;nan;-24419.38;4934361;29;20186;-59
2022/08/23 04:56:24;;;;;;;5.55;3.47;;;;;;;22.07;nan;-24430.03;4932884;29;21576;-59
2022/08/23 04:58:49;;;;;;;6.55;3.38;;;;;;;22.12;nan;-24431.56;4939923;29;20185;-59
2022/08/23 05:01:15;;;;;;;7.97;4.28;;;;;;;21.92;nan;-24426.03;4941177;29;20533;-60
2022/08/23 05:03:41;;;;;;;6.93;3.80;;;;;;;22.38;nan;-24438.75;4940924;29;20216;-59
2022/08/23 05:06:06;;;;;;;6.22;3.60;;;;;;;22.52;nan;-24442.50;4935926;29;20202;-59
2022/08/23 05:08:33;;;;;;;8.07;3.92;;;;;;;22.70;nan;-24447.50;4933968;29;20179;-59
2022/08/23 05:11:01;;;;;;;7.72;3.50;;;;;;;23.13;nan;-24459.09;4933615;29;20193;-60
2022/08/23 05:13:27;;;;;;;5.80;3.33;;;;;;;23.54;nan;-24470.41;4935294;29;20202;-60
2022/08/23 05:15:52;;;;;;;5.32;3.40;;;;;;;23.52;nan;-24469.88;4935173;29;20237;-60
2022/08/23 05:18:18;;;;;;;7.05;3.60;;;;;;;23.89;nan;-24479.81;4935075;29;20270;-58
2022/08/23 05:20:44;;;;;;;5.13;3.35;;;;;;;23.91;nan;-24480.50;4934627;29;20183;-58
2022/08/23 05:23:10;;;;;;;4.75;3.20;;;;;;;24.20;nan;-24488.50;4933563;29;20214;-59
2022/08/23 05:25:51;;;;;;;5.00;2.97;;;;;;;24.60;nan;-24499.25;4934320;29;20182;-59
2022/08/23 05:28:20;;;;;;;5.63;3.13;;;;;;;24.64;nan;-24500.34;4935674;29;20216;-59
2022/08/23 05:31:04;;;;;;;5.32;3.28;;;;;;;24.64;nan;-24500.34;4931254;29;20183;-59
2022/08/23 05:33:31;;;;;;;4.55;2.78;;;;;;;24.39;nan;-24493.47;4935456;29;20190;-59
2022/08/23 05:35:57;;;;;;;6.15;3.03;;;;;;;24.77;nan;-24503.78;4934615;29;20187;-58
2022/08/23 05:38:23;;;;;;;5.55;3.10;;;;;;;24.83;nan;-24505.59;4936770;29;20228;-60
2022/08/23 05:40:51;;;;;;;5.13;3.45;;;;;;;24.65;nan;-24500.63;4936910;29;20592;-58
2022/08/23 05:43:17;;;;;;;7.75;3.83;;;;;;;24.31;nan;-24491.41;4935772;29;20202;-59
2022/08/23 05:45:43;;;;;;;5.32;3.20;;;;;;;24.73;nan;-24502.84;4936469;29;20179;-59
2022/08/23 05:48:09;;;;;;;5.88;3.35;;;;;;;24.91;nan;-24507.66;4936033;29;20261;-59
2022/08/23 05:50:36;;;;;;;5.35;3.00;;;;;;;25.07;nan;-24512.06;4936031;29;20211;-59
2022/08/23 05:53:02;;;;;;;5.68;3.30;;;;;;;25.24;nan;-24516.59;4935918;29;20683;-59
2022/08/23 05:55:27;;;;;;;7.60;3.70;;;;;;;25.31;nan;-24518.53;4935877;29;20266;-59
2022/08/23 05:57:52;;;;;;;7.35;3.20;;;;;;;25.06;nan;-24511.78;4936059;29;20183;-59
2022/08/23 06:00:18;;;;;;;5.97;3.60;;;;;;;25.22;nan;-24516.19;4935807;29;20559;-60
2022/08/23 06:02:43;;;;;;;6.22;3.25;;;;;;;25.38;nan;-24520.59;4935984;29;20178;-60
2022/08/23 06:05:09;;;;;;;5.10;3.30;;;;;;;25.17;nan;-24514.69;4935802;29;20215;-60
2022/08/23 06:07:35;;;;;;;5.88;3.75;;;;;;;25.43;nan;-24521.97;4936070;29;20326;-60
2022/08/23 06:10:02;;;;;;;6.65;3.72;;;;;;;25.27;nan;-24517.56;4935517;29;20183;-60
2022/08/23 06:12:30;;;;;;;5.80;3.40;;;;;;;25.49;nan;-24523.47;4934712;29;20325;-60
2022/08/23 06:14:56;;;;;;;5.53;3.53;;;;;;;25.62;nan;-24527.06;4935664;29;20190;-60
2022/08/23 06:17:22;;;;;;;5.30;3.33;;;;;;;25.65;nan;-24527.75;4934907;29;20218;-60
2022/08/23 06:19:47;;;;;;;8.77;3.78;;;;;;;26.24;nan;-24543.84;4935663;29;20170;-59
2022/08/23 06:22:12;;;;;;;5.15;3.17;;;;;;;26.57;nan;-24552.75;4935600;29;20585;-61
2022/08/23 06:24:38;;;;;;;6.35;3.47;;;;;;;26.92;nan;-24562.38;4935372;29;20669;-59
2022/08/23 06:27:03;;;;;;;6.03;3.88;;;;;;;26.83;nan;-24560.03;4935151;29;20207;-59
2022/08/23 06:29:29;;;;;;;7.03;4.05;;;;;;;27.03;nan;-24565.38;4934914;29;20618;-59
2022/08/23 06:31:55;;;;;;;9.43;3.58;;;;;;;27.08;nan;-24566.63;4935575;29;20182;-60
2022/08/23 06:34:36;;;;;;;5.63;3.53;;;;;;;26.41;nan;-24548.50;4950047;28;20189;-59
2022/08/23 06:37:13;;;;;;;7.20;3.78;;;;;;;26.40;nan;-24548.22;4935394;29;20215;-59
2022/08/23 06:39:40;;;;;;;6.57;4.05;;;;;;;26.55;nan;-24552.34;4917855;29;20210;-59
2022/08/23 06:42:10;;;;;;;8.55;4.15;;;;;;;26.45;nan;-24549.47;4934263;29;20186;-59
2022/08/23 06:44:35;;;;;;;4.75;3.17;;;;;;;26.38;nan;-24547.81;4934707;29;20218;-60
2022/08/23 06:47:02;;;;;;;6.40;4.07;;;;;;;26.34;nan;-24546.72;4935239;29;20182;-59
2022/08/23 06:49:28;;;;;;;7.63;3.67;;;;;;;26.00;nan;-24537.38;4935197;29;20638;-59
2022/08/23 06:51:56;;;;;;;6.07;3.80;;;;;;;26.19;nan;-24542.59;4934652;29;20181;-59
2022/08/23 06:54:25;;;;;;;5.82;3.65;;;;;;;25.88;nan;-24534.06;4935081;29;20249;-58
2022/08/23 06:56:52;;;;;;;7.10;3.53;;;;;;;26.13;nan;-24540.94;4935098;29;20199;-59
2022/08/23 06:59:18;;;;;;;7.45;3.83;;;;;;;26.16;nan;-24541.78;4934787;29;20183;-59
2022/08/23 07:01:58;;;;;;;6.28;3.95;;;;;;;26.26;nan;-24544.53;4934967;29;20209;-59
2022/08/23 07:04:27;;;;;;;7.80;3.70;;;;;;;26.28;nan;-24545.06;4934497;29;20193;-59
2022/08/23 07:06:54;;;;;;;7.70;3.72;;;;;;;26.49;nan;-24550.56;4934576;29;20229;-59
2022/08/23 07:09:20;;;;;;;8.10;3.90;;;;;;;26.01;nan;-24537.50;4934428;29;20189;-58
2022/08/23 07:11:46;;;;;;;6.90;4.63;;;;;;;25.98;nan;-24536.81;4934295;29;20210;-59
2022/08/23 07:14:14;;;;;;;6.88;4.13;;;;;;;26.13;nan;-24540.81;4934782;29;20209;-59
2022/08/23 07:16:51;;;;;;;6.38;4.03;;;;;;;25.80;nan;-24532.00;4934757;29;20305;-59
2022/08/23 07:19:18;;;;;;;7.88;4.32;;;;;;;26.17;nan;-24541.91;4934593;29;20210;-59
2022/08/23 07:21:44;;;;;;;8.35;4.63;;;;;;;26.68;nan;-24555.91;4933838;29;20238;-59
2022/08/23 07:24:10;;;;;;;7.13;4.50;;;;;;;26.58;nan;-24553.03;4948686;29;20579;-59
2022/08/23 07:26:36;;;;;;;6.43;4.15;;;;;;;26.92;nan;-24562.22;4934014;29;20189;-61
2022/08/23 07:29:06;;;;;;;7.75;4.80;;;;;;;27.22;nan;-24570.47;4934440;29;20179;-59
2022/08/23 07:31:37;;;;;;;7.55;4.63;;;;;;;26.42;nan;-24548.78;4934025;29;20555;-59
2022/08/23 07:34:04;;;;;;;8.80;4.85;;;;;;;26.77;nan;-24558.25;4934414;29;20221;-59
2022/08/23 07:36:31;;;;;;;7.18;4.45;;;;;;;27.17;nan;-24569.22;4934454;29;20178;-59
2022/08/23 07:38:57;;;;;;;8.45;4.65;;;;;;;27.27;nan;-24571.84;4934289;29;20179;-59
2022/08/23 07:41:26;;;;;;;8.55;4.80;;;;;;;27.54;nan;-24579.09;4933975;29;20178;-59
2022/08/23 07:43:51;;;;;;;7.80;5.03;;;;;;;27.96;nan;-24590.59;4934487;29;20209;-60
2022/08/23 07:46:17;;;;;;;9.07;5.25;;;;;;;27.45;nan;-24576.78;4934174;29;20174;-59
2022/08/23 07:48:42;;;;;;;7.60;4.88;;;;;;;28.10;nan;-24594.31;4933989;29;20185;-59
2022/08/23 07:51:11;;;;;;;7.68;5.20;;;;;;;27.79;nan;-24585.81;4932300;29;20620;-59
2022/08/23 07:53:37;;;;;;;8.95;5.15;;;;;;;27.79;nan;-24585.94;4933981;29;20166;-60
2022/08/23 07:56:08;;;;;;;10.90;4.70;;;;;;;27.89;nan;-24588.56;4934597;29;20597;-59
2022/08/23 07:58:34;;;;;;;7.15;4.47;;;;;;;28.11;nan;-24594.59;4932887;29;20159;-59
2022/08/23 08:01:11;;;;;;;7.80;4.80;;;;;;;27.53;nan;-24578.81;4932248;29;20194;-59
2022/08/23 08:03:38;;;;;;;9.23;4.75;;;;;;;27.73;nan;-24584.16;4932025;29;20237;-59
2022/08/23 08:06:11;;;;;;;8.65;5.25;;;;;;;27.66;nan;-24582.38;4932591;29;20174;-59
2022/08/23 08:08:36;;;;;;;8.02;4.75;;;;;;;27.32;nan;-24573.22;4932521;29;20249;-59
2022/08/23 08:11:02;;;;;;;7.78;4.60;;;;;;;27.61;nan;-24581.00;4932485;29;20753;-60
2022/08/23 08:13:27;;;;;;;9.95;5.38;;;;;;;27.68;nan;-24583.06;4932504;29;20656;-60
2022/08/23 08:15:53;;;;;;;9.07;5.07;;;;;;;27.57;nan;-24579.91;4934124;29;20304;-59
2022/08/23 08:18:19;;;;;;;6.63;4.05;;;;;;;28.14;nan;-24595.41;4934118;29;20174;-59
2022/08/23 08:20:44;;;;;;;6.40;4.13;;;;;;;28.52;nan;-24605.66;4934341;29;20174;-59
2022/08/23 08:23:10;;;;;;;8.43;4.95;;;;;;;28.57;nan;-24607.03;4934583;29;20222;-59
2022/08/23 08:25:35;;;;;;;7.35;4.50;;;;;;;28.28;nan;-24599.09;4934055;29;20182;-60
2022/08/23 08:28:01;;;;;;;6.25;3.88;;;;;;;28.82;nan;-24613.72;4935091;29;20206;-60
2022/08/23 08:30:26;;;;;;;6.68;4.00;;;;;;;28.88;nan;-24615.38;4934248;29;20189;-57
2022/08/23 08:32:52;;;;;;;8.23;4.72;;;;;;;28.79;nan;-24613.03;4934444;29;20693;-59
2022/08/23 08:35:18;;;;;;;7.07;4.18;;;;;;;28.55;nan;-24606.47;4934179;29;20189;-60
2022/08/23 08:37:43;;;;;;;7.32;4.22;;;;;;;28.83;nan;-24614.00;4934491;29;20205;-59
2022/08/23 08:40:10;;;;;;;8.40;4.60;;;;;;;28.48;nan;-24604.69;4935448;29;20614;-58
2022/08/23 08:43:05;;;;;;;9.35;5.18;;;;;;;28.10;nan;-24594.44;4933793;29;20229;-58
2022/08/23 08:45:44;;;;;;;9.07;4.20;;;;;;;28.31;nan;-24600.06;4934202;29;20187;-58
2022/08/23 08:48:14;;;;;;;6.93;3.70;;;;;;;28.26;nan;-24598.53;4934311;29;20181;-59
2022/08/23 08:50:45;;;;;;;6.88;4.00;;;;;;;28.49;nan;-24604.84;4933493;29;20613;-59
2022/08/23 08:53:16;;;;;;;7.18;4.22;;;;;;;28.50;nan;-24605.13;4934049;29;20226;-58
2022/08/23 08:55:48;;;;;;;8.40;4.63;;;;;;;27.92;nan;-24589.50;4934002;29;20239;-58
2022/08/23 08:58:21;;;;;;;7.07;3.97;;;;;;;28.19;nan;-24596.63;4933857;29;20209;-58
2022/08/23 09:00:46;;;;;;;12.45;4.32;;;;;;;28.11;nan;-24594.72;4933733;29;20190;-59
2022/08/23 09:03:19;;;;;;;4.80;3.63;;;;;;;27.95;nan;-24590.19;4933900;29;20197;-58
2022/08/23 09:06:01;;;;;;;6.70;4.15;;;;;;;28.64;nan;-24608.94;4934771;29;20178;-59
2022/08/23 09:08:47;;;;;;;6.00;3.85;;;;;;;28.42;nan;-24603.06;4937601;29;20188;-58
2022/08/23 09:11:29;;;;;;;6.78;4.45;;;;;;;28.79;nan;-24613.03;4937684;29;20173;-58
2022/08/23 09:14:20;;;;;;;7.82;4.00;;;;;;;28.73;nan;-24611.28;4937111;29;20675;-58
2022/08/23 09:17:17;;;;;;;7.38;4.50;;;;;;;28.72;nan;-24611.13;4937345;29;20661;-58
2022/08/23 09:19:45;;;;;;;8.90;4.53;;;;;;;28.88;nan;-24615.50;4937882;29;20170;-58
2022/08/23 09:22:13;;;;;;;8.25;4.72;;;;;;;29.14;nan;-24622.34;4936857;29;20174;-58
2022/08/23 09:24:39;;;;;;;7.10;4.68;;;;;;;29.56;nan;-24633.66;4937122;29;20198;-58
2022/08/23 09:27:08;;;;;;;9.10;4.00;;;;;;;29.52;nan;-24632.59;4936263;29;20188;-59
2022/08/23 09:29:35;;;;;;;7.45;4.47;;;;;;;29.26;nan;-24625.75;4936598;29;20186;-59
2022/08/23 09:32:24;;;;;;;7.53;4.50;;;;;;;28.90;nan;-24616.06;4936746;29;20281;-59
2022/08/23 09:34:49;;;;;;;6.63;4.20;;;;;;;28.90;nan;-24615.91;4937194;29;20189;-58
2022/08/23 09:37:23;;;;;;;8.32;4.20;;;;;;;28.94;nan;-24617.16;4936578;29;20180;-59
2022/08/23 09:40:14;;;;;;;8.48;4.72;;;;;;;28.44;nan;-24603.59;4936996;29;20162;-59
2022/08/23 09:42:40;;;;;;;8.32;4.65;;;;;;;28.74;nan;-24611.69;4936277;29;20189;-59
2022/08/23 09:45:26;;;;;;;10.93;4.80;;;;;;;29.38;nan;-24628.91;4936357;29;20573;-59
2022/08/23 09:47:52;;;;;;;7.32;4.60;;;;;;;28.74;nan;-24611.53;4937263;29;20188;-59
2022/08/23 09:50:32;;;;;;;8.40;5.00;;;;;;;29.14;nan;-24622.47;4936370;29;20257;-59
2022/08/23 09:53:02;;;;;;;7.55;5.07;;;;;;;30.15;nan;-24649.63;4936352;29;20197;-59
2022/08/23 09:55:35;;;;;;;8.70;4.70;;;;;;;30.48;nan;-24658.50;4936042;29;20245;-59
2022/08/23 09:58:35;;;;;;;13.00;5.03;;;;;;;30.92;nan;-24670.34;4936631;29;20618;-58
2022/08/23 10:01:22;;;;;;;8.05;4.82;;;;;;;30.79;nan;-24666.81;4917242;29;20241;-59
2022/08/23 10:04:11;;;;;;;8.15;4.70;;;;;;;29.72;nan;-24638.03;4936229;29;20747;-59
2022/08/23 10:06:38;;;;;;;6.60;4.65;;;;;;;29.63;nan;-24635.72;4936462;29;20205;-58
2022/08/23 10:09:06;;;;;;;8.80;4.93;;;;;;;29.52;nan;-24632.59;4919020;29;20595;-58
2022/08/23 10:11:46;;;;;;;9.35;5.07;;;;;;;29.70;nan;-24637.63;4935645;29;20501;-58
2022/08/23 10:14:18;;;;;;;7.88;4.72;;;;;;;30.10;nan;-24648.28;4935864;29;20158;-59
2022/08/23 10:17:03;;;;;;;9.50;5.75;;;;;;;30.71;nan;-24664.91;4935299;29;20270;-59
2022/08/23 10:19:43;;;;;;;10.13;5.07;;;;;;;30.98;nan;-24672.09;4936377;29;20173;-59
2022/08/23 10:22:20;;;;;;;12.80;5.57;;;;;;;31.23;nan;-24678.66;4935776;29;20166;-59
2022/08/23 10:24:45;;;;;;;8.02;5.25;;;;;;;31.04;nan;-24673.59;4935672;29;20237;-58
2022/08/23 10:30:24;;;;;;;8.32;5.18;;;;;;;30.02;nan;-24646.22;4935624;29;20224;-59
2022/08/23 10:33:11;;;;;;;9.38;5.10;;;;;;;29.36;nan;-24628.47;4935168;29;20558;-59
2022/08/23 10:36:10;;;;;;;9.38;4.93;;;;;;;30.17;nan;-24650.19;4935767;29;20237;-59
2022/08/23 10:38:57;;;;;;;8.00;4.85;;;;;;;29.94;nan;-24643.91;4935455;29;20220;-59
2022/08/23 10:41:49;;;;;;;9.68;5.03;;;;;;;30.36;nan;-24655.34;4936006;29;20170;-59
2022/08/23 10:44:34;;;;;;;9.55;5.78;;;;;;;30.60;nan;-24661.91;4896320;29;20285;-59
2022/08/23 10:47:26;;;;;;;8.77;4.95;;;;;;;30.66;nan;-24663.53;4935632;29;20217;-59
2022/08/23 10:49:53;;;;;;;9.48;4.93;;;;;;;30.83;nan;-24668.03;4934481;29;20174;-58
2022/08/23 10:52:26;;;;;;;8.23;5.20;;;;;;;30.41;nan;-24656.72;4934808;29;20174;-59
2022/08/23 10:54:59;;;;;;;7.57;4.40;;;;;;;30.38;nan;-24655.78;4935131;29;20269;-58
2022/08/23 10:57:39;;;;;;;9.38;4.97;;;;;;;30.59;nan;-24661.63;4934911;29;20237;-58
2022/08/23 11:00:09;;;;;;;7.53;4.72;;;;;;;30.99;nan;-24672.38;4934968;29;20174;-58
2022/08/23 11:02:43;;;;;;;9.07;5.28;;;;;;;31.17;nan;-24677.16;4934597;29;20174;-58
2022/08/23 11:05:21;;;;;;;10.02;4.60;;;;;;;31.59;nan;-24688.44;4934593;29;20300;-58
2022/08/23 11:08:03;;;;;;;12.48;5.13;;;;;;;31.63;nan;-24689.53;4934599;29;20170;-58
2022/08/23 11:10:45;;;;;;;12.98;4.97;;;;;;;31.49;nan;-24685.72;4934322;29;20189;-58
2022/08/23 11:13:10;;;;;;;8.00;4.70;;;;;;;31.34;nan;-24681.63;4934812;29;20709;-58
2022/08/23 11:15:57;;;;;;;7.70;4.97;;;;;;;31.13;nan;-24676.19;4934226;29;20266;-59
2022/08/23 11:18:28;;;;;;;8.13;5.18;;;;;;;31.18;nan;-24677.41;4934518;29;20765;-58
2022/08/23 11:21:15;;;;;;;9.25;5.40;;;;;;;30.36;nan;-24655.34;4933995;29;20736;-59
2022/08/23 11:24:06;;;;;;;8.73;5.50;;;;;;;30.27;nan;-24652.91;4934397;29;20229;-58
2022/08/23 11:26:39;;;;;;;9.23;5.47;;;;;;;30.91;nan;-24670.22;4928017;29;20209;-58
2022/08/23 11:29:05;;;;;;;8.40;5.43;;;;;;;31.20;nan;-24677.84;4934155;29;20273;-58
2022/08/23 11:31:39;;;;;;;8.77;5.20;;;;;;;31.03;nan;-24673.47;4934597;29;20261;-58
2022/08/23 11:34:20;;;;;;;15.05;6.60;;;;;;;30.48;nan;-24658.63;4934734;29;20653;-58
2022/08/23 11:37:27;;;;;;;8.32;5.22;;;;;;;31.06;nan;-24674.16;4934488;29;20194;-58
2022/08/23 11:39:58;;;;;;;10.70;5.10;;;;;;;31.31;nan;-24680.97;4894140;29;20187;-58
2022/08/23 11:42:35;;;;;;;8.38;5.20;;;;;;;31.56;nan;-24687.75;4894713;29;20180;-58
2022/08/23 11:45:18;;;;;;;11.10;5.88;;;;;;;31.51;nan;-24686.25;4918150;29;20359;-58
2022/08/23 11:47:44;;;;;;;8.13;5.20;;;;;;;31.74;nan;-24692.50;4935437;29;20245;-58
2022/08/23 11:50:30;;;;;;;8.05;5.40;;;;;;;31.70;nan;-24691.28;4934486;29;20579;-58
2022/08/23 11:53:22;;;;;;;8.73;5.90;;;;;;;31.90;nan;-24696.72;4949347;29;20170;-58
2022/08/23 11:55:47;;;;;;;8.27;5.55;;;;;;;32.07;nan;-24701.34;4918582;29;20223;-58
2022/08/23 11:58:21;;;;;;;8.93;5.95;;;;;;;32.05;nan;-24700.66;4934580;29;20349;-58
2022/08/23 12:01:08;;;;;;;11.70;6.47;;;;;;;31.72;nan;-24691.84;4935045;29;20280;-58